sensor_id;sensor_type;location;lat;lon;timestamp;temperature;humidity
63317;DHT22;49822;41.468;13.560;2022-10-16T00:01:40;15.00;87.00
63317;DHT22;49822;41.468;13.560;2022-10-16T00:04:09;15.00;86.30
63317;DHT22;49822;41.468;13.560;2022-10-16T00:06:37;15.00;87.10
63317;DHT22;49822;41.468;13.560;2022-10-16T00:09:05;14.80;85.70
63317;DHT22;49822;41.468;13.560;2022-10-16T00:11:35;14.50;87.40
63317;DHT22;49822;41.468;13.560;2022-10-16T00:14:08;14.40;89.30
63317;DHT22;49822;41.468;13.560;2022-10-16T00:16:36;14.60;90.00
63317;DHT22;49822;41.468;13.560;2022-10-16T00:19:04;14.70;90.50
63317;DHT22;49822;41.468;13.560;2022-10-16T00:21:32;14.80;90.00
63317;DHT22;49822;41.468;13.560;2022-10-16T00:24:02;14.90;89.40
63317;DHT22;49822;41.468;13.560;2022-10-16T00:26:31;14.90;88.80
63317;DHT22;49822;41.468;13.560;2022-10-16T00:28:59;15.00;87.70
63317;DHT22;49822;41.468;13.560;2022-10-16T00:31:28;15.00;86.30
63317;DHT22;49822;41.468;13.560;2022-10-16T00:33:56;15.00;85.40
63317;DHT22;49822;41.468;13.560;2022-10-16T00:36:25;14.80;86.40
63317;DHT22;49822;41.468;13.560;2022-10-16T00:38:55;14.80;86.80
63317;DHT22;49822;41.468;13.560;2022-10-16T00:41:26;14.90;86.10
63317;DHT22;49822;41.468;13.560;2022-10-16T00:43:59;14.90;85.00
63317;DHT22;49822;41.468;13.560;2022-10-16T00:46:37;14.80;85.80
63317;DHT22;49822;41.468;13.560;2022-10-16T00:49:14;14.60;86.20
63317;DHT22;49822;41.468;13.560;2022-10-16T00:51:47;14.60;87.60
63317;DHT22;49822;41.468;13.560;2022-10-16T00:54:30;14.70;87.60
63317;DHT22;49822;41.468;13.560;2022-10-16T00:57:01;14.80;86.80
63317;DHT22;49822;41.468;13.560;2022-10-16T00:59:32;14.80;85.70
63317;DHT22;49822;41.468;13.560;2022-10-16T01:02:00;14.70;84.70
63317;DHT22;49822;41.468;13.560;2022-10-16T01:04:39;14.70;83.60
63317;DHT22;49822;41.468;13.560;2022-10-16T01:10:11;14.50;85.60
63317;DHT22;49822;41.468;13.560;2022-10-16T01:15:34;14.30;88.70
63317;DHT22;49822;41.468;13.560;2022-10-16T01:21:03;14.20;86.60
63317;DHT22;49822;41.468;13.560;2022-10-16T01:32:36;14.30;87.10
63317;DHT22;49822;41.468;13.560;2022-10-16T01:38:01;13.90;88.00
63317;DHT22;49822;41.468;13.560;2022-10-16T01:40:33;13.90;88.50
63317;DHT22;49822;41.468;13.560;2022-10-16T01:43:14;13.60;89.80
63317;DHT22;49822;41.468;13.560;2022-10-16T01:45:45;13.80;90.90
63317;DHT22;49822;41.468;13.560;2022-10-16T01:48:19;13.90;90.60
63317;DHT22;49822;41.468;13.560;2022-10-16T01:51:17;13.80;90.20
63317;DHT22;49822;41.468;13.560;2022-10-16T01:53:54;13.90;89.70
63317;DHT22;49822;41.468;13.560;2022-10-16T01:56:23;14.00;88.60
63317;DHT22;49822;41.468;13.560;2022-10-16T01:59:09;13.90;89.10
63317;DHT22;49822;41.468;13.560;2022-10-16T02:01:41;13.90;88.30
63317;DHT22;49822;41.468;13.560;2022-10-16T02:04:34;14.00;88.50
63317;DHT22;49822;41.468;13.560;2022-10-16T02:07:03;14.00;85.60
63317;DHT22;49822;41.468;13.560;2022-10-16T02:09:33;13.90;84.50
63317;DHT22;49822;41.468;13.560;2022-10-16T02:12:09;13.60;86.30
63317;DHT22;49822;41.468;13.560;2022-10-16T02:14:38;13.40;88.60
63317;DHT22;49822;41.468;13.560;2022-10-16T02:17:16;13.30;90.10
63317;DHT22;49822;41.468;13.560;2022-10-16T02:19:45;13.50;90.30
63317;DHT22;49822;41.468;13.560;2022-10-16T02:22:32;13.60;90.00
63317;DHT22;49822;41.468;13.560;2022-10-16T02:25:27;13.70;89.50
63317;DHT22;49822;41.468;13.560;2022-10-16T02:28:18;13.90;88.90
63317;DHT22;49822;41.468;13.560;2022-10-16T02:30:57;13.90;88.40
63317;DHT22;49822;41.468;13.560;2022-10-16T02:33:28;14.00;88.10
63317;DHT22;49822;41.468;13.560;2022-10-16T02:35:57;14.00;87.10
63317;DHT22;49822;41.468;13.560;2022-10-16T02:38:26;14.10;86.20
63317;DHT22;49822;41.468;13.560;2022-10-16T02:40:55;14.00;85.70
63317;DHT22;49822;41.468;13.560;2022-10-16T02:43:22;14.00;85.60
63317;DHT22;49822;41.468;13.560;2022-10-16T02:45:51;14.00;85.40
63317;DHT22;49822;41.468;13.560;2022-10-16T02:48:21;14.00;85.40
63317;DHT22;49822;41.468;13.560;2022-10-16T02:50:48;14.00;86.90
63317;DHT22;49822;41.468;13.560;2022-10-16T02:53:15;13.90;87.50
63317;DHT22;49822;41.468;13.560;2022-10-16T02:55:43;13.90;88.10
63317;DHT22;49822;41.468;13.560;2022-10-16T02:58:10;14.00;87.50
63317;DHT22;49822;41.468;13.560;2022-10-16T03:00:40;13.90;87.20
63317;DHT22;49822;41.468;13.560;2022-10-16T03:03:11;14.00;86.20
63317;DHT22;49822;41.468;13.560;2022-10-16T03:05:38;13.70;85.20
63317;DHT22;49822;41.468;13.560;2022-10-16T03:08:06;13.70;86.10
63317;DHT22;49822;41.468;13.560;2022-10-16T03:10:33;13.80;86.90
63317;DHT22;49822;41.468;13.560;2022-10-16T03:13:02;13.50;85.40
63317;DHT22;49822;41.468;13.560;2022-10-16T03:15:32;13.30;86.30
63317;DHT22;49822;41.468;13.560;2022-10-16T03:18:03;13.30;87.40
63317;DHT22;49822;41.468;13.560;2022-10-16T03:20:31;13.30;86.40
63317;DHT22;49822;41.468;13.560;2022-10-16T03:22:58;13.10;88.50
63317;DHT22;49822;41.468;13.560;2022-10-16T03:25:26;13.20;88.90
63317;DHT22;49822;41.468;13.560;2022-10-16T03:27:53;13.30;89.20
63317;DHT22;49822;41.468;13.560;2022-10-16T03:30:23;13.50;90.00
63317;DHT22;49822;41.468;13.560;2022-10-16T03:32:59;13.60;88.70
63317;DHT22;49822;41.468;13.560;2022-10-16T03:35:27;13.50;87.70
63317;DHT22;49822;41.468;13.560;2022-10-16T03:37:54;13.30;88.60
63317;DHT22;49822;41.468;13.560;2022-10-16T03:40:21;13.40;90.00
63317;DHT22;49822;41.468;13.560;2022-10-16T03:42:49;13.50;89.50
63317;DHT22;49822;41.468;13.560;2022-10-16T03:45:17;13.60;87.90
63317;DHT22;49822;41.468;13.560;2022-10-16T03:47:53;13.60;86.60
63317;DHT22;49822;41.468;13.560;2022-10-16T03:50:21;13.60;85.80
63317;DHT22;49822;41.468;13.560;2022-10-16T03:52:49;13.70;86.20
63317;DHT22;49822;41.468;13.560;2022-10-16T03:55:16;13.70;86.60
63317;DHT22;49822;41.468;13.560;2022-10-16T03:57:45;13.60;86.90
63317;DHT22;49822;41.468;13.560;2022-10-16T04:00:12;13.50;86.40
63317;DHT22;49822;41.468;13.560;2022-10-16T04:02:40;13.30;86.20
63317;DHT22;49822;41.468;13.560;2022-10-16T04:05:08;13.20;86.10
63317;DHT22;49822;41.468;13.560;2022-10-16T04:07:35;13.10;86.00
63317;DHT22;49822;41.468;13.560;2022-10-16T04:10:04;13.10;86.10
63317;DHT22;49822;41.468;13.560;2022-10-16T04:12:32;13.20;86.00
63317;DHT22;49822;41.468;13.560;2022-10-16T04:14:59;13.10;85.40
63317;DHT22;49822;41.468;13.560;2022-10-16T04:17:27;13.10;86.00
63317;DHT22;49822;41.468;13.560;2022-10-16T04:19:54;13.00;87.90
63317;DHT22;49822;41.468;13.560;2022-10-16T04:22:22;13.10;88.00
63317;DHT22;49822;41.468;13.560;2022-10-16T04:24:49;13.10;87.80
63317;DHT22;49822;41.468;13.560;2022-10-16T04:27:18;13.00;86.70
63317;DHT22;49822;41.468;13.560;2022-10-16T04:29:47;12.70;88.60
63317;DHT22;49822;41.468;13.560;2022-10-16T04:32:15;12.30;90.10
63317;DHT22;49822;41.468;13.560;2022-10-16T04:34:42;11.90;92.80
63317;DHT22;49822;41.468;13.560;2022-10-16T04:37:09;12.00;94.50
63317;DHT22;49822;41.468;13.560;2022-10-16T04:39:37;12.00;94.70
63317;DHT22;49822;41.468;13.560;2022-10-16T04:42:04;12.20;95.40
63317;DHT22;49822;41.468;13.560;2022-10-16T04:44:32;12.50;95.20
63317;DHT22;49822;41.468;13.560;2022-10-16T04:47:00;12.50;94.50
63317;DHT22;49822;41.468;13.560;2022-10-16T04:49:27;12.50;92.80
63317;DHT22;49822;41.468;13.560;2022-10-16T04:51:55;12.30;92.60
63317;DHT22;49822;41.468;13.560;2022-10-16T04:54:22;12.50;93.20
63317;DHT22;49822;41.468;13.560;2022-10-16T04:56:50;12.50;92.20
63317;DHT22;49822;41.468;13.560;2022-10-16T04:59:21;12.50;91.20
63317;DHT22;49822;41.468;13.560;2022-10-16T05:01:50;12.60;90.60
63317;DHT22;49822;41.468;13.560;2022-10-16T05:04:18;12.70;89.80
63317;DHT22;49822;41.468;13.560;2022-10-16T05:06:45;12.80;89.30
63317;DHT22;49822;41.468;13.560;2022-10-16T05:09:13;12.90;88.30
63317;DHT22;49822;41.468;13.560;2022-10-16T05:11:40;12.90;87.60
63317;DHT22;49822;41.468;13.560;2022-10-16T05:14:07;12.90;87.20
63317;DHT22;49822;41.468;13.560;2022-10-16T05:16:40;13.00;86.80
63317;DHT22;49822;41.468;13.560;2022-10-16T05:19:07;12.70;85.10
63317;DHT22;49822;41.468;13.560;2022-10-16T05:21:53;12.50;86.60
63317;DHT22;49822;41.468;13.560;2022-10-16T05:24:21;12.30;88.30
63317;DHT22;49822;41.468;13.560;2022-10-16T05:26:49;12.50;87.60
63317;DHT22;49822;41.468;13.560;2022-10-16T05:29:17;12.40;87.40
63317;DHT22;49822;41.468;13.560;2022-10-16T05:31:45;12.40;88.30
63317;DHT22;49822;41.468;13.560;2022-10-16T05:34:12;12.50;88.60
63317;DHT22;49822;41.468;13.560;2022-10-16T05:36:40;12.20;88.20
63317;DHT22;49822;41.468;13.560;2022-10-16T05:39:07;11.90;90.30
63317;DHT22;49822;41.468;13.560;2022-10-16T05:41:34;11.90;92.70
63317;DHT22;49822;41.468;13.560;2022-10-16T05:44:05;12.10;93.50
63317;DHT22;49822;41.468;13.560;2022-10-16T05:46:33;12.40;93.40
63317;DHT22;49822;41.468;13.560;2022-10-16T05:49:00;12.50;92.50
63317;DHT22;49822;41.468;13.560;2022-10-16T05:51:28;12.80;91.60
63317;DHT22;49822;41.468;13.560;2022-10-16T05:53:55;12.70;89.60
63317;DHT22;49822;41.468;13.560;2022-10-16T05:56:22;12.80;89.20
63317;DHT22;49822;41.468;13.560;2022-10-16T05:58:50;12.90;88.90
63317;DHT22;49822;41.468;13.560;2022-10-16T06:01:19;13.10;88.40
63317;DHT22;49822;41.468;13.560;2022-10-16T06:03:52;13.10;88.00
63317;DHT22;49822;41.468;13.560;2022-10-16T06:06:22;13.30;87.60
63317;DHT22;49822;41.468;13.560;2022-10-16T06:08:52;13.40;86.90
63317;DHT22;49822;41.468;13.560;2022-10-16T06:11:22;13.50;86.30
63317;DHT22;49822;41.468;13.560;2022-10-16T06:13:52;13.50;86.00
63317;DHT22;49822;41.468;13.560;2022-10-16T06:16:20;13.50;85.40
63317;DHT22;49822;41.468;13.560;2022-10-16T06:18:52;13.30;85.90
63317;DHT22;49822;41.468;13.560;2022-10-16T06:21:23;13.40;87.20
63317;DHT22;49822;41.468;13.560;2022-10-16T06:23:54;13.50;86.30
63317;DHT22;49822;41.468;13.560;2022-10-16T06:26:24;13.50;86.70
63317;DHT22;49822;41.468;13.560;2022-10-16T06:28:53;13.30;85.70
63317;DHT22;49822;41.468;13.560;2022-10-16T06:31:22;13.30;87.60
63317;DHT22;49822;41.468;13.560;2022-10-16T06:33:51;13.50;87.40
63317;DHT22;49822;41.468;13.560;2022-10-16T06:36:19;13.30;86.00
63317;DHT22;49822;41.468;13.560;2022-10-16T06:38:47;13.10;89.10
63317;DHT22;49822;41.468;13.560;2022-10-16T06:41:18;13.30;88.90
63317;DHT22;49822;41.468;13.560;2022-10-16T06:43:47;13.60;88.50
63317;DHT22;49822;41.468;13.560;2022-10-16T06:46:19;13.90;87.70
63317;DHT22;49822;41.468;13.560;2022-10-16T06:48:47;14.10;85.50
63317;DHT22;49822;41.468;13.560;2022-10-16T06:51:18;14.10;85.40
63317;DHT22;49822;41.468;13.560;2022-10-16T06:53:49;14.20;85.40
63317;DHT22;49822;41.468;13.560;2022-10-16T06:56:33;14.40;84.70
63317;DHT22;49822;41.468;13.560;2022-10-16T06:59:01;14.30;83.90
63317;DHT22;49822;41.468;13.560;2022-10-16T07:01:30;14.30;85.40
63317;DHT22;49822;41.468;13.560;2022-10-16T07:03:57;14.30;85.00
63317;DHT22;49822;41.468;13.560;2022-10-16T07:06:26;14.60;85.40
63317;DHT22;49822;41.468;13.560;2022-10-16T07:08:54;14.90;84.60
63317;DHT22;49822;41.468;13.560;2022-10-16T07:11:23;15.00;83.90
63317;DHT22;49822;41.468;13.560;2022-10-16T07:13:52;15.40;83.60
63317;DHT22;49822;41.468;13.560;2022-10-16T07:16:27;15.60;83.10
63317;DHT22;49822;41.468;13.560;2022-10-16T07:18:56;15.60;83.90
63317;DHT22;49822;41.468;13.560;2022-10-16T07:21:29;15.60;84.00
63317;DHT22;49822;41.468;13.560;2022-10-16T07:23:59;15.80;83.40
63317;DHT22;49822;41.468;13.560;2022-10-16T07:26:33;16.00;81.90
63317;DHT22;49822;41.468;13.560;2022-10-16T07:29:01;16.20;82.00
63317;DHT22;49822;41.468;13.560;2022-10-16T07:31:29;16.00;83.00
63317;DHT22;49822;41.468;13.560;2022-10-16T07:34:00;16.00;83.30
63317;DHT22;49822;41.468;13.560;2022-10-16T07:36:33;15.90;83.10
63317;DHT22;49822;41.468;13.560;2022-10-16T07:39:01;15.80;85.00
63317;DHT22;49822;41.468;13.560;2022-10-16T07:41:28;15.90;85.20
63317;DHT22;49822;41.468;13.560;2022-10-16T07:43:56;16.00;85.60
63317;DHT22;49822;41.468;13.560;2022-10-16T07:46:27;16.10;85.00
63317;DHT22;49822;41.468;13.560;2022-10-16T07:48:55;16.10;84.60
63317;DHT22;49822;41.468;13.560;2022-10-16T07:51:24;16.20;85.10
63317;DHT22;49822;41.468;13.560;2022-10-16T07:53:52;16.40;84.10
63317;DHT22;49822;41.468;13.560;2022-10-16T07:56:21;16.50;83.20
63317;DHT22;49822;41.468;13.560;2022-10-16T07:58:50;16.60;82.50
63317;DHT22;49822;41.468;13.560;2022-10-16T08:01:19;16.60;83.50
63317;DHT22;49822;41.468;13.560;2022-10-16T08:03:49;16.70;82.60
63317;DHT22;49822;41.468;13.560;2022-10-16T08:06:19;16.80;81.10
63317;DHT22;49822;41.468;13.560;2022-10-16T08:08:55;16.80;81.00
63317;DHT22;49822;41.468;13.560;2022-10-16T08:11:22;17.00;81.40
63317;DHT22;49822;41.468;13.560;2022-10-16T08:13:50;17.20;80.70
63317;DHT22;49822;41.468;13.560;2022-10-16T08:16:19;17.30;79.50
63317;DHT22;49822;41.468;13.560;2022-10-16T08:18:47;17.40;79.40
63317;DHT22;49822;41.468;13.560;2022-10-16T08:21:17;17.40;80.40
63317;DHT22;49822;41.468;13.560;2022-10-16T08:23:49;17.50;80.10
63317;DHT22;49822;41.468;13.560;2022-10-16T08:26:25;17.50;80.70
63317;DHT22;49822;41.468;13.560;2022-10-16T08:28:53;17.60;79.70
63317;DHT22;49822;41.468;13.560;2022-10-16T08:31:20;17.80;79.40
63317;DHT22;49822;41.468;13.560;2022-10-16T08:33:49;17.80;79.40
63317;DHT22;49822;41.468;13.560;2022-10-16T08:36:17;18.00;78.20
63317;DHT22;49822;41.468;13.560;2022-10-16T08:38:49;18.00;78.60
63317;DHT22;49822;41.468;13.560;2022-10-16T08:49:28;18.80;75.90
63317;DHT22;49822;41.468;13.560;2022-10-16T08:51:57;18.90;75.20
63317;DHT22;49822;41.468;13.560;2022-10-16T08:54:57;19.00;73.80
63317;DHT22;49822;41.468;13.560;2022-10-16T08:57:26;18.90;74.70
63317;DHT22;49822;41.468;13.560;2022-10-16T08:59:55;19.00;74.70
63317;DHT22;49822;41.468;13.560;2022-10-16T09:02:48;19.00;74.60
63317;DHT22;49822;41.468;13.560;2022-10-16T09:08:32;19.50;73.90
63317;DHT22;49822;41.468;13.560;2022-10-16T09:11:20;19.50;73.40
63317;DHT22;49822;41.468;13.560;2022-10-16T09:16:41;19.70;73.50
63317;DHT22;49822;41.468;13.560;2022-10-16T09:19:23;19.90;73.00
63317;DHT22;49822;41.468;13.560;2022-10-16T09:21:53;20.10;71.80
63317;DHT22;49822;41.468;13.560;2022-10-16T09:24:24;20.20;71.50
63317;DHT22;49822;41.468;13.560;2022-10-16T09:26:55;20.10;71.60
63317;DHT22;49822;41.468;13.560;2022-10-16T09:29:24;19.90;72.30
63317;DHT22;49822;41.468;13.560;2022-10-16T09:31:53;20.00;72.80
63317;DHT22;49822;41.468;13.560;2022-10-16T09:34:32;20.30;72.70
63317;DHT22;49822;41.468;13.560;2022-10-16T09:37:03;20.60;70.30
63317;DHT22;49822;41.468;13.560;2022-10-16T09:39:47;20.90;69.90
63317;DHT22;49822;41.468;13.560;2022-10-16T09:42:21;21.30;68.90
63317;DHT22;49822;41.468;13.560;2022-10-16T09:44:51;21.30;68.00
63317;DHT22;49822;41.468;13.560;2022-10-16T09:47:28;21.40;69.00
63317;DHT22;49822;41.468;13.560;2022-10-16T09:50:01;21.40;68.20
63317;DHT22;49822;41.468;13.560;2022-10-16T09:52:36;21.50;68.60
63317;DHT22;49822;41.468;13.560;2022-10-16T09:55:17;21.70;67.20
63317;DHT22;49822;41.468;13.560;2022-10-16T09:57:51;21.70;67.10
63317;DHT22;49822;41.468;13.560;2022-10-16T10:00:23;21.80;67.20
63317;DHT22;49822;41.468;13.560;2022-10-16T10:02:59;21.70;66.60
63317;DHT22;49822;41.468;13.560;2022-10-16T10:05:28;22.00;66.80
63317;DHT22;49822;41.468;13.560;2022-10-16T10:08:03;22.20;66.20
63317;DHT22;49822;41.468;13.560;2022-10-16T10:10:42;22.50;65.50
63317;DHT22;49822;41.468;13.560;2022-10-16T10:13:20;22.70;63.60
63317;DHT22;49822;41.468;13.560;2022-10-16T10:15:51;22.20;64.40
63317;DHT22;49822;41.468;13.560;2022-10-16T10:18:22;22.10;65.90
63317;DHT22;49822;41.468;13.560;2022-10-16T10:21:01;22.50;65.90
63317;DHT22;49822;41.468;13.560;2022-10-16T10:23:30;22.70;65.20
63317;DHT22;49822;41.468;13.560;2022-10-16T10:26:10;22.70;63.70
63317;DHT22;49822;41.468;13.560;2022-10-16T10:29:31;22.70;64.30
63317;DHT22;49822;41.468;13.560;2022-10-16T10:32:03;22.80;64.20
63317;DHT22;49822;41.468;13.560;2022-10-16T10:35:01;22.90;65.40
63317;DHT22;49822;41.468;13.560;2022-10-16T10:37:53;23.30;62.70
63317;DHT22;49822;41.468;13.560;2022-10-16T10:40:57;23.20;62.60
63317;DHT22;49822;41.468;13.560;2022-10-16T11:00:40;24.40;58.40
63317;DHT22;49822;41.468;13.560;2022-10-16T11:11:40;24.30;59.20
63317;DHT22;49822;41.468;13.560;2022-10-16T11:14:22;24.40;59.60
63317;DHT22;49822;41.468;13.560;2022-10-16T11:17:19;24.50;58.70
63317;DHT22;49822;41.468;13.560;2022-10-16T11:19:54;24.20;57.90
63317;DHT22;49822;41.468;13.560;2022-10-16T11:28:01;24.60;58.30
63317;DHT22;49822;41.468;13.560;2022-10-16T11:30:33;25.00;57.20
63317;DHT22;49822;41.468;13.560;2022-10-16T11:33:23;24.90;56.20
63317;DHT22;49822;41.468;13.560;2022-10-16T11:36:04;25.00;58.20
63317;DHT22;49822;41.468;13.560;2022-10-16T11:47:34;25.30;55.70
63317;DHT22;49822;41.468;13.560;2022-10-16T11:55:45;26.20;54.20
63317;DHT22;49822;41.468;13.560;2022-10-16T11:58:40;26.10;52.10
63317;DHT22;49822;41.468;13.560;2022-10-16T12:01:39;25.80;53.50
63317;DHT22;49822;41.468;13.560;2022-10-16T12:04:42;25.30;52.50
63317;DHT22;49822;41.468;13.560;2022-10-16T12:07:17;25.30;53.00
63317;DHT22;49822;41.468;13.560;2022-10-16T12:09:45;25.30;53.40
63317;DHT22;49822;41.468;13.560;2022-10-16T12:12:39;25.50;54.50
63317;DHT22;49822;41.468;13.560;2022-10-16T12:15:22;25.80;52.50
63317;DHT22;49822;41.468;13.560;2022-10-16T12:18:25;25.80;53.80
63317;DHT22;49822;41.468;13.560;2022-10-16T12:20:57;26.20;53.20
63317;DHT22;49822;41.468;13.560;2022-10-16T12:23:27;26.40;52.60
63317;DHT22;49822;41.468;13.560;2022-10-16T12:25:59;26.40;52.10
63317;DHT22;49822;41.468;13.560;2022-10-16T12:28:29;26.50;51.70
63317;DHT22;49822;41.468;13.560;2022-10-16T12:31:06;26.60;51.10
63317;DHT22;49822;41.468;13.560;2022-10-16T12:33:39;26.80;50.80
63317;DHT22;49822;41.468;13.560;2022-10-16T12:36:31;26.80;49.10
63317;DHT22;49822;41.468;13.560;2022-10-16T12:38:59;26.80;49.50
63317;DHT22;49822;41.468;13.560;2022-10-16T12:41:33;27.00;49.00
63317;DHT22;49822;41.468;13.560;2022-10-16T12:44:01;27.00;49.30
63317;DHT22;49822;41.468;13.560;2022-10-16T12:51:40;26.80;50.20
63317;DHT22;49822;41.468;13.560;2022-10-16T12:54:19;26.90;49.40
63317;DHT22;49822;41.468;13.560;2022-10-16T12:56:58;27.20;48.00
63317;DHT22;49822;41.468;13.560;2022-10-16T13:11:08;26.40;51.10
63317;DHT22;49822;41.468;13.560;2022-10-16T13:13:45;26.60;48.70
63317;DHT22;49822;41.468;13.560;2022-10-16T13:19:02;27.10;48.90
63317;DHT22;49822;41.468;13.560;2022-10-16T13:29:34;27.60;48.70
63317;DHT22;49822;41.468;13.560;2022-10-16T13:32:07;27.80;47.60
63317;DHT22;49822;41.468;13.560;2022-10-16T13:34:44;27.70;47.70
63317;DHT22;49822;41.468;13.560;2022-10-16T13:37:20;27.70;47.40
63317;DHT22;49822;41.468;13.560;2022-10-16T13:39:49;27.60;47.40
63317;DHT22;49822;41.468;13.560;2022-10-16T13:42:28;27.70;47.50
63317;DHT22;49822;41.468;13.560;2022-10-16T13:44:57;27.80;47.70
63317;DHT22;49822;41.468;13.560;2022-10-16T13:47:27;28.10;47.60
63317;DHT22;49822;41.468;13.560;2022-10-16T13:50:06;27.80;46.80
63317;DHT22;49822;41.468;13.560;2022-10-16T13:52:34;27.90;47.10
63317;DHT22;49822;41.468;13.560;2022-10-16T13:55:01;27.90;47.30
63317;DHT22;49822;41.468;13.560;2022-10-16T13:57:29;28.00;46.60
63317;DHT22;49822;41.468;13.560;2022-10-16T13:59:56;28.30;46.00
63317;DHT22;49822;41.468;13.560;2022-10-16T14:02:33;28.50;46.10
63317;DHT22;49822;41.468;13.560;2022-10-16T14:05:04;28.20;46.80
63317;DHT22;49822;41.468;13.560;2022-10-16T14:07:36;28.10;47.90
63317;DHT22;49822;41.468;13.560;2022-10-16T14:10:07;28.00;47.20
63317;DHT22;49822;41.468;13.560;2022-10-16T14:12:45;28.10;47.00
63317;DHT22;49822;41.468;13.560;2022-10-16T14:15:24;28.10;46.90
63317;DHT22;49822;41.468;13.560;2022-10-16T14:17:59;28.00;46.90
63317;DHT22;49822;41.468;13.560;2022-10-16T14:20:32;27.80;47.40
63317;DHT22;49822;41.468;13.560;2022-10-16T14:23:18;27.70;48.40
63317;DHT22;49822;41.468;13.560;2022-10-16T14:28:37;27.60;47.30
63317;DHT22;49822;41.468;13.560;2022-10-16T14:31:27;27.30;47.50
63317;DHT22;49822;41.468;13.560;2022-10-16T14:33:55;26.90;48.80
63317;DHT22;49822;41.468;13.560;2022-10-16T14:36:24;26.60;51.40
63317;DHT22;49822;41.468;13.560;2022-10-16T14:39:14;26.20;54.20
63317;DHT22;49822;41.468;13.560;2022-10-16T14:41:47;26.00;55.30
63317;DHT22;49822;41.468;13.560;2022-10-16T14:44:17;25.70;55.70
63317;DHT22;49822;41.468;13.560;2022-10-16T14:46:45;25.40;56.20
63317;DHT22;49822;41.468;13.560;2022-10-16T14:51:41;25.40;56.40
63317;DHT22;49822;41.468;13.560;2022-10-16T14:54:10;25.20;55.70
63317;DHT22;49822;41.468;13.560;2022-10-16T14:59:33;26.60;53.60
63317;DHT22;49822;41.468;13.560;2022-10-16T15:02:25;28.10;50.20
63317;DHT22;49822;41.468;13.560;2022-10-16T15:04:55;29.20;46.80
63317;DHT22;49822;41.468;13.560;2022-10-16T15:07:24;29.60;44.80
63317;DHT22;49822;41.468;13.560;2022-10-16T15:09:53;29.00;45.50
63317;DHT22;49822;41.468;13.560;2022-10-16T15:12:21;29.30;46.60
63317;DHT22;49822;41.468;13.560;2022-10-16T15:14:48;29.70;47.40
63317;DHT22;49822;41.468;13.560;2022-10-16T15:17:16;30.60;45.60
63317;DHT22;49822;41.468;13.560;2022-10-16T15:19:47;30.40;43.80
63317;DHT22;49822;41.468;13.560;2022-10-16T15:22:15;29.00;47.10
63317;DHT22;49822;41.468;13.560;2022-10-16T15:24:42;28.10;49.00
63317;DHT22;49822;41.468;13.560;2022-10-16T15:27:10;26.40;52.80
63317;DHT22;49822;41.468;13.560;2022-10-16T15:29:37;24.60;56.20
63317;DHT22;49822;41.468;13.560;2022-10-16T15:32:05;23.40;60.30
63317;DHT22;49822;41.468;13.560;2022-10-16T15:34:33;23.00;61.80
63317;DHT22;49822;41.468;13.560;2022-10-16T15:37:03;22.70;63.10
63317;DHT22;49822;41.468;13.560;2022-10-16T15:39:31;22.50;63.50
63317;DHT22;49822;41.468;13.560;2022-10-16T15:41:58;22.30;63.70
63317;DHT22;49822;41.468;13.560;2022-10-16T15:44:26;22.20;64.80
63317;DHT22;49822;41.468;13.560;2022-10-16T15:46:57;21.90;66.90
63317;DHT22;49822;41.468;13.560;2022-10-16T15:49:26;21.70;68.50
63317;DHT22;49822;41.468;13.560;2022-10-16T15:51:53;21.50;69.50
63317;DHT22;49822;41.468;13.560;2022-10-16T15:54:21;21.40;69.90
63317;DHT22;49822;41.468;13.560;2022-10-16T15:56:50;21.40;69.80
63317;DHT22;49822;41.468;13.560;2022-10-16T15:59:20;21.30;69.70
63317;DHT22;49822;41.468;13.560;2022-10-16T16:01:50;21.10;70.40
63317;DHT22;49822;41.468;13.560;2022-10-16T16:04:18;21.10;70.50
63317;DHT22;49822;41.468;13.560;2022-10-16T16:07:06;21.30;70.90
63317;DHT22;49822;41.468;13.560;2022-10-16T16:09:36;21.50;70.40
63317;DHT22;49822;41.468;13.560;2022-10-16T16:12:04;21.60;69.60
63317;DHT22;49822;41.468;13.560;2022-10-16T16:14:31;21.70;69.00
63317;DHT22;49822;41.468;13.560;2022-10-16T16:17:01;21.80;68.10
63317;DHT22;49822;41.468;13.560;2022-10-16T16:19:36;21.90;67.60
63317;DHT22;49822;41.468;13.560;2022-10-16T16:22:04;21.90;68.20
63317;DHT22;49822;41.468;13.560;2022-10-16T16:24:36;21.90;68.30
63317;DHT22;49822;41.468;13.560;2022-10-16T16:27:04;21.90;67.80
63317;DHT22;49822;41.468;13.560;2022-10-16T16:29:31;21.70;68.20
63317;DHT22;49822;41.468;13.560;2022-10-16T16:32:00;21.70;68.70
63317;DHT22;49822;41.468;13.560;2022-10-16T16:34:28;21.50;68.90
63317;DHT22;49822;41.468;13.560;2022-10-16T16:36:57;21.40;69.30
63317;DHT22;49822;41.468;13.560;2022-10-16T16:39:25;21.40;69.50
63317;DHT22;49822;41.468;13.560;2022-10-16T16:41:56;21.30;69.30
63317;DHT22;49822;41.468;13.560;2022-10-16T16:44:30;21.10;69.90
63317;DHT22;49822;41.468;13.560;2022-10-16T16:46:58;21.00;70.50
63317;DHT22;49822;41.468;13.560;2022-10-16T16:49:27;20.80;71.00
63317;DHT22;49822;41.468;13.560;2022-10-16T16:51:55;20.80;71.40
63317;DHT22;49822;41.468;13.560;2022-10-16T16:54:23;20.70;71.80
63317;DHT22;49822;41.468;13.560;2022-10-16T16:56:53;20.60;71.90
63317;DHT22;49822;41.468;13.560;2022-10-16T16:59:21;20.00;74.10
63317;DHT22;49822;41.468;13.560;2022-10-16T17:01:50;19.60;75.50
63317;DHT22;49822;41.468;13.560;2022-10-16T17:04:23;19.30;76.50
63317;DHT22;49822;41.468;13.560;2022-10-16T17:06:54;19.20;77.00
63317;DHT22;49822;41.468;13.560;2022-10-16T17:09:23;18.90;78.30
63317;DHT22;49822;41.468;13.560;2022-10-16T17:11:50;18.60;79.70
63317;DHT22;49822;41.468;13.560;2022-10-16T17:14:18;18.60;80.40
63317;DHT22;49822;41.468;13.560;2022-10-16T17:16:45;18.80;79.40
63317;DHT22;49822;41.468;13.560;2022-10-16T17:19:17;19.00;78.70
63317;DHT22;49822;41.468;13.560;2022-10-16T17:21:47;19.10;78.00
63317;DHT22;49822;41.468;13.560;2022-10-16T17:24:15;19.20;77.00
63317;DHT22;49822;41.468;13.560;2022-10-16T17:26:42;18.90;76.70
63317;DHT22;49822;41.468;13.560;2022-10-16T17:29:15;18.60;77.70
63317;DHT22;49822;41.468;13.560;2022-10-16T17:31:45;18.40;78.60
63317;DHT22;49822;41.468;13.560;2022-10-16T17:34:12;18.20;78.80
63317;DHT22;49822;41.468;13.560;2022-10-16T17:36:40;18.10;79.10
63317;DHT22;49822;41.468;13.560;2022-10-16T17:39:12;18.00;79.60
63317;DHT22;49822;41.468;13.560;2022-10-16T17:41:40;18.00;80.10